Time;durP1;ratioP1;P1;durP2;ratioP2;P2;SDS_P1;SDS_P2;PMS_P1;PMS_P2;Temp;Humidity;BMP_temperature;BMP_pressure;BME280_temperature;BME280_humidity;BME280_pressure;Samples;Min_cycle;Max_cycle;Signal;HPM_P1;HPM_P2
2022/05/03 00:01:42;;;;;;;10.83;8.80;;;;;;;13.79;73.61;96508.56;4994246;28;20215;-72
2022/05/03 00:04:28;;;;;;;9.07;8.17;;;;;;;13.66;74.31;96505.31;5009781;28;20573;-72
2022/05/03 00:07:26;;;;;;;10.60;8.63;;;;;;;13.64;74.90;96502.16;5033915;28;20232;-70
2022/05/03 00:10:06;;;;;;;11.13;9.00;;;;;;;13.73;74.75;96507.72;5033087;28;20214;-70
2022/05/03 00:13:02;;;;;;;9.43;7.97;;;;;;;13.60;75.16;96501.06;5033684;28;20181;-72
2022/05/03 00:15:31;;;;;;;10.83;9.03;;;;;;;13.59;75.55;96501.31;5027067;28;20266;-71
2022/05/03 00:17:57;;;;;;;11.30;9.23;;;;;;;13.44;76.04;96506.44;5033531;28;20676;-71
2022/05/03 00:20:23;;;;;;;11.13;8.97;;;;;;;13.54;75.72;96499.41;5033497;28;20209;-71
2022/05/03 00:22:49;;;;;;;10.63;9.30;;;;;;;13.44;75.99;96496.72;5033211;28;20193;-71
2022/05/03 00:25:16;;;;;;;10.30;9.00;;;;;;;13.43;75.97;96502.25;5032883;28;20545;-71
2022/05/03 00:27:42;;;;;;;10.03;8.80;;;;;;;13.33;76.39;96502.94;5015710;28;20178;-71
2022/05/03 00:30:08;;;;;;;10.73;8.53;;;;;;;13.28;76.78;96497.63;5033457;28;20649;-70
2022/05/03 00:32:34;;;;;;;10.37;9.03;;;;;;;13.31;76.60;96494.53;5033052;28;20422;-71
2022/05/03 00:35:00;;;;;;;9.77;8.70;;;;;;;13.25;77.35;96495.53;5015218;28;20258;-71
2022/05/03 00:37:26;;;;;;;10.50;9.33;;;;;;;13.30;77.23;96492.94;5015454;28;20183;-71
2022/05/03 00:39:51;;;;;;;11.80;8.63;;;;;;;13.64;74.97;96496.09;5032577;28;20199;-69
2022/05/03 00:42:40;;;;;;;11.03;9.57;;;;;;;13.54;75.16;96501.28;5033361;28;20301;-71
2022/05/03 00:45:29;;;;;;;13.57;10.17;;;;;;;13.48;75.79;96502.28;5032710;28;20175;-70
2022/05/03 00:48:03;;;;;;;11.73;10.07;;;;;;;13.46;76.01;96491.22;5032822;28;20185;-70
2022/05/03 00:50:47;;;;;;;11.50;10.30;;;;;;;13.17;77.53;96498.59;5032829;28;20209;-70
2022/05/03 00:53:18;;;;;;;12.00;9.43;;;;;;;13.17;77.75;96498.59;5032758;28;20266;-70
2022/05/03 00:56:08;;;;;;;11.97;10.10;;;;;;;13.14;78.36;96499.91;5019383;28;20189;-69
2022/05/03 00:59:12;;;;;;;11.83;9.13;;;;;;;13.06;78.68;96496.88;5032987;28;20198;-70
2022/05/03 01:01:46;;;;;;;15.13;10.73;;;;;;;13.24;78.16;96493.94;5008947;28;20271;-69
2022/05/03 01:04:32;;;;;;;13.50;11.17;;;;;;;13.13;78.54;96498.31;5014889;28;20254;-70
2022/05/03 01:07:09;;;;;;;13.27;10.90;;;;;;;12.84;80.00;96497.72;5032906;28;20229;-71
2022/05/03 01:09:43;;;;;;;16.17;11.70;;;;;;;12.97;79.55;96496.53;5032686;28;20178;-70
2022/05/03 01:12:39;;;;;;;15.93;12.23;;;;;;;12.75;80.78;96488.69;5032603;28;20611;-70
2022/05/03 01:15:18;;;;;;;15.43;11.97;;;;;;;12.74;81.10;96495.00;5032572;28;20309;-69
2022/05/03 01:18:11;;;;;;;13.40;11.20;;;;;;;12.69;81.05;96483.63;5032668;28;20262;-69
2022/05/03 01:21:13;;;;;;;13.50;12.13;;;;;;;12.56;82.25;96482.16;5033090;28;20578;-71
2022/05/03 01:23:57;;;;;;;13.87;11.77;;;;;;;12.62;82.00;96493.53;4999934;28;20232;-71
2022/05/03 01:26:48;;;;;;;15.50;12.33;;;;;;;12.57;82.48;96490.84;5029964;28;20683;-70
2022/05/03 01:29:25;;;;;;;14.33;12.23;;;;;;;12.50;83.07;96496.28;5036773;28;20244;-69
2022/05/03 01:32:08;;;;;;;14.13;12.63;;;;;;;12.33;83.64;96492.94;5036408;28;20218;-70
2022/05/03 01:34:34;;;;;;;13.73;12.13;;;;;;;12.18;84.71;96493.53;5036580;28;20183;-70
2022/05/03 01:36:59;;;;;;;13.73;12.37;;;;;;;12.25;84.43;96494.16;5036033;28;20210;-70
2022/05/03 01:39:31;;;;;;;16.03;13.70;;;;;;;12.30;84.32;96488.19;5034805;28;20210;-71
2022/05/03 01:42:25;;;;;;;16.53;14.00;;;;;;;12.41;83.89;96490.69;5036615;28;20693;-71
2022/05/03 01:45:07;;;;;;;16.83;13.70;;;;;;;12.62;83.07;96483.00;5036194;28;20167;-71
2022/05/03 01:47:57;;;;;;;18.73;14.13;;;;;;;12.49;84.03;96495.50;5034150;28;20236;-70
2022/05/03 01:50:43;;;;;;;16.90;14.43;;;;;;;12.59;83.83;96486.94;5036540;28;20661;-70
2022/05/03 01:53:18;;;;;;;16.83;14.40;;;;;;;12.46;84.46;96489.94;5036319;28;20189;-71
2022/05/03 01:56:01;;;;;;;15.67;13.37;;;;;;;12.21;85.67;96489.63;5036286;28;20179;-70
2022/05/03 01:58:50;;;;;;;17.37;14.53;;;;;;;11.98;87.18;96496.69;5018248;28;20221;-70
2022/05/03 02:01:41;;;;;;;16.13;14.43;;;;;;;11.92;87.76;96487.16;5035756;28;20264;-69
2022/05/03 02:04:29;;;;;;;18.67;13.53;;;;;;;11.74;88.88;96489.25;5035380;28;20313;-71
2022/05/03 02:07:07;;;;;;;18.00;13.53;;;;;;;11.74;88.69;96484.00;5036100;28;20182;-69
2022/05/03 02:09:52;;;;;;;16.90;14.20;;;;;;;11.65;89.38;96487.00;5036016;28;20178;-70
2022/05/03 02:12:21;;;;;;;15.13;13.40;;;;;;;11.67;89.14;96484.94;5035004;28;20261;-71
2022/05/03 02:14:52;;;;;;;17.10;13.17;;;;;;;11.70;89.37;96475.00;5035351;28;20187;-69
2022/05/03 02:17:30;;;;;;;18.90;14.70;;;;;;;12.02;88.56;96474.16;5035588;28;20279;-71
2022/05/03 02:20:33;;;;;;;20.70;15.20;;;;;;;12.00;89.40;96481.47;5020582;28;20195;-70
2022/05/03 02:23:32;;;;;;;20.03;15.37;;;;;;;11.91;88.97;96482.16;5035713;28;20656;-71
2022/05/03 02:26:31;;;;;;;19.33;14.50;;;;;;;11.60;90.08;96492.16;5035470;28;20167;-70
2022/05/03 02:29:04;;;;;;;18.40;14.23;;;;;;;11.56;91.11;96488.44;5017776;28;20174;-71
2022/05/03 02:32:05;;;;;;;19.63;14.73;;;;;;;11.46;91.34;96488.28;5034809;28;20179;-71
2022/05/03 02:34:45;;;;;;;18.20;14.90;;;;;;;11.35;91.97;96480.50;5034448;28;20185;-69
2022/05/03 02:37:32;;;;;;;19.47;15.10;;;;;;;11.35;92.21;96480.50;5035070;28;20228;-70
2022/05/03 02:40:07;;;;;;;18.87;15.37;;;;;;;11.32;92.81;96473.88;5034940;28;20281;-69
2022/05/03 02:42:34;;;;;;;18.13;15.50;;;;;;;11.32;92.56;96478.34;5034957;28;20178;-72
2022/05/03 02:45:01;;;;;;;18.00;15.20;;;;;;;11.30;92.97;96475.97;5034894;28;20217;-69
2022/05/03 02:47:51;;;;;;;20.53;16.30;;;;;;;11.30;93.71;96481.22;5034487;28;20182;-70
2022/05/03 02:50:26;;;;;;;18.60;14.93;;;;;;;11.28;93.97;96475.41;5035417;28;20179;-70
2022/05/03 02:53:20;;;;;;;19.10;14.87;;;;;;;11.36;93.52;96479.47;5035556;28;20233;-70
2022/05/03 02:56:06;;;;;;;21.50;16.07;;;;;;;11.29;93.98;96479.63;5017328;28;20687;-70
2022/05/03 02:58:53;;;;;;;16.80;15.03;;;;;;;11.32;93.49;96473.09;5035194;28;20210;-72
2022/05/03 03:01:49;;;;;;;18.10;14.97;;;;;;;11.22;94.60;96477.16;5021465;28;20218;-70
2022/05/03 03:05:00;;;;;;;17.17;14.97;;;;;;;11.08;95.37;96470.63;5033675;28;20237;-71
2022/05/03 03:07:31;;;;;;;22.33;16.67;;;;;;;11.25;94.79;96470.66;5034881;28;20279;-69
2022/05/03 03:10:03;;;;;;;22.17;17.27;;;;;;;11.53;93.12;96480.28;5034439;28;20171;-71
2022/05/03 03:12:53;;;;;;;21.23;16.30;;;;;;;11.33;94.59;96472.06;5034544;28;20168;-71
2022/05/03 03:15:25;;;;;;;19.93;17.03;;;;;;;11.18;95.37;96470.00;5034778;28;20175;-69
2022/05/03 03:17:51;;;;;;;21.23;16.73;;;;;;;11.17;96.02;96474.44;5034448;28;20175;-70
2022/05/03 03:20:27;;;;;;;17.50;15.70;;;;;;;11.08;95.58;96477.72;5016827;28;20806;-69
2022/05/03 03:22:54;;;;;;;19.10;16.40;;;;;;;10.81;97.16;96488.00;5034098;28;20645;-70
2022/05/03 03:25:22;;;;;;;16.83;15.03;;;;;;;10.67;98.99;96481.44;5034305;28;20271;-69
2022/05/03 03:27:53;;;;;;;18.97;16.03;;;;;;;10.62;98.97;96474.28;5034537;28;20186;-69
2022/05/03 03:30:20;;;;;;;18.03;15.37;;;;;;;10.55;100.00;96480.69;5034680;28;20167;-68
2022/05/03 03:32:48;;;;;;;16.43;14.73;;;;;;;10.26;100.00;96483.25;5016789;28;20201;-70
2022/05/03 03:35:15;;;;;;;18.93;16.23;;;;;;;10.49;100.00;96486.84;5034175;28;20191;-72
2022/05/03 03:37:48;;;;;;;18.53;15.43;;;;;;;10.62;99.74;96481.34;5033994;28;20186;-71
2022/05/03 03:40:15;;;;;;;17.60;15.77;;;;;;;10.43;100.00;96481.50;5034067;28;20198;-70
2022/05/03 03:42:42;;;;;;;16.83;15.03;;;;;;;10.32;100.00;96481.53;5034367;28;20209;-71
2022/05/03 03:45:10;;;;;;;17.13;15.33;;;;;;;10.38;100.00;96486.66;5015088;28;20183;-68
2022/05/03 03:47:38;;;;;;;21.87;16.83;;;;;;;10.44;100.00;96482.31;5033304;28;20190;-70
2022/05/03 03:50:05;;;;;;;19.77;16.30;;;;;;;10.42;100.00;96487.00;5033530;28;20183;-70
2022/05/03 03:52:32;;;;;;;20.00;16.10;;;;;;;10.59;99.77;96487.06;5033721;28;20269;-70
2022/05/03 03:54:58;;;;;;;18.37;16.07;;;;;;;10.68;97.65;96480.41;5034093;28;20183;-69
2022/05/03 03:57:24;;;;;;;17.97;15.53;;;;;;;10.50;99.33;96485.81;5033881;28;20178;-71
2022/05/03 03:59:50;;;;;;;16.90;15.20;;;;;;;10.56;99.31;96483.06;5033475;28;20197;-69
2022/05/03 04:02:16;;;;;;;18.57;15.87;;;;;;;10.52;98.55;96478.53;5033833;28;20182;-71
2022/05/03 04:04:43;;;;;;;16.90;14.70;;;;;;;10.49;98.35;96478.97;5033503;28;20702;-71
2022/05/03 04:07:09;;;;;;;18.93;14.47;;;;;;;10.57;98.45;96483.88;5015832;28;20191;-69
2022/05/03 04:09:34;;;;;;;17.63;15.10;;;;;;;10.56;97.99;96477.03;5033590;28;20244;-70
2022/05/03 04:12:01;;;;;;;15.97;14.03;;;;;;;10.56;98.56;96471.78;5033329;28;20185;-70
2022/05/03 04:14:27;;;;;;;16.77;14.83;;;;;;;10.65;97.91;96468.56;5016016;28;20190;-71
2022/05/03 04:17:00;;;;;;;15.87;14.10;;;;;;;10.69;97.77;96480.19;5090491;27;20612;-61
2022/05/03 04:19:26;;;;;;;16.13;14.37;;;;;;;10.73;97.34;96470.81;5074602;28;20219;-62
2022/05/03 04:21:52;;;;;;;18.80;15.20;;;;;;;10.91;97.22;96475.06;5069696;28;20668;-61
2022/05/03 04:24:18;;;;;;;14.77;13.27;;;;;;;11.02;96.10;96473.41;5102842;28;20205;-60
2022/05/03 04:26:44;;;;;;;14.90;13.37;;;;;;;10.94;96.70;96474.56;5071437;28;20202;-61
2022/05/03 04:29:10;;;;;;;15.57;13.10;;;;;;;10.92;96.49;96481.91;5071225;28;20226;-59
2022/05/03 04:31:36;;;;;;;15.27;13.47;;;;;;;10.99;96.77;96473.84;5070501;28;20174;-61
2022/05/03 04:34:03;;;;;;;14.57;12.33;;;;;;;10.97;96.14;96473.31;5070317;28;20177;-60
2022/05/03 04:36:33;;;;;;;16.07;12.77;;;;;;;11.09;95.49;96481.94;5075491;28;20205;-62
2022/05/03 04:39:00;;;;;;;16.63;12.73;;;;;;;11.07;95.51;96479.53;5076781;28;20177;-61
2022/05/03 04:41:26;;;;;;;15.00;12.30;;;;;;;11.08;95.71;96488.19;5070329;28;20178;-61
2022/05/03 04:43:51;;;;;;;13.80;12.37;;;;;;;11.07;95.32;96489.22;5089025;28;20185;-60
2022/05/03 04:46:18;;;;;;;13.97;12.57;;;;;;;11.22;95.32;96489.47;5083975;28;20224;-60
2022/05/03 04:48:43;;;;;;;15.00;13.17;;;;;;;11.43;93.69;96495.84;5068587;28;20173;-62
2022/05/03 04:51:23;;;;;;;13.33;12.00;;;;;;;11.72;92.24;96499.97;5069939;28;20629;-61
2022/05/03 04:53:50;;;;;;;14.47;12.93;;;;;;;12.04;90.83;96505.44;5070157;28;20186;-61
2022/05/03 04:56:18;;;;;;;15.17;13.57;;;;;;;12.40;88.49;96504.06;5069791;28;20271;-61
2022/05/03 04:58:43;;;;;;;15.80;14.27;;;;;;;12.58;87.21;96516.09;5069961;28;20178;-60
2022/05/03 05:01:08;;;;;;;17.70;13.87;;;;;;;12.72;86.17;96512.84;5069560;28;20307;-60
2022/05/03 05:03:34;;;;;;;16.67;13.40;;;;;;;12.84;85.57;96516.13;5081177;28;20646;-61
2022/05/03 05:05:59;;;;;;;14.63;13.13;;;;;;;12.78;86.43;96513.69;5076422;28;20200;-61
2022/05/03 05:08:25;;;;;;;12.67;11.47;;;;;;;13.23;83.69;96522.06;5091279;28;20246;-62
2022/05/03 05:10:50;;;;;;;13.20;11.90;;;;;;;13.03;84.04;96523.69;5088765;28;20192;-61
2022/05/03 05:13:16;;;;;;;14.83;11.60;;;;;;;13.38;82.76;96529.31;5088967;28;20189;-61
2022/05/03 05:15:41;;;;;;;14.10;12.20;;;;;;;13.57;81.68;96522.63;5095596;28;20707;-63
2022/05/03 05:18:07;;;;;;;15.03;12.37;;;;;;;13.65;80.73;96521.38;5109375;28;20184;-63
2022/05/03 05:20:34;;;;;;;12.33;11.07;;;;;;;13.84;79.83;96525.19;5109144;28;20689;-63
2022/05/03 05:22:59;;;;;;;13.30;10.67;;;;;;;13.41;81.26;96520.13;5098572;28;20651;-61
2022/05/03 05:25:25;;;;;;;13.07;11.20;;;;;;;13.57;80.58;96524.47;5101783;28;20228;-61
2022/05/03 05:27:51;;;;;;;13.53;11.97;;;;;;;13.77;79.50;96526.44;5078639;28;20212;-63
2022/05/03 05:30:16;;;;;;;12.63;11.07;;;;;;;14.30;77.33;96525.47;5088323;28;20169;-62
2022/05/03 05:32:41;;;;;;;11.90;9.77;;;;;;;14.49;75.65;96524.00;5095623;28;20172;-61
2022/05/03 05:35:07;;;;;;;10.87;9.77;;;;;;;14.09;77.11;96522.75;5090119;28;20660;-62
2022/05/03 05:37:33;;;;;;;12.53;9.67;;;;;;;14.52;75.45;96519.03;5075285;28;20256;-63
2022/05/03 05:39:59;;;;;;;10.50;9.30;;;;;;;14.57;74.58;96523.53;5077643;28;20208;-63
2022/05/03 05:42:28;;;;;;;11.90;9.40;;;;;;;14.49;76.18;96519.53;5095283;28;20180;-63
2022/05/03 05:44:53;;;;;;;13.90;9.70;;;;;;;14.87;73.62;96530.75;5086567;28;20185;-62
2022/05/03 05:47:19;;;;;;;11.33;10.23;;;;;;;15.26;71.92;96525.81;5093789;28;20200;-62
2022/05/03 05:49:45;;;;;;;11.87;9.97;;;;;;;15.26;72.57;96526.63;5095210;28;20652;-61
2022/05/03 05:55:10;;;;;;;11.47;10.13;;;;;;;15.16;72.73;96534.50;5045735;28;20217;-62
2022/05/03 05:57:35;;;;;;;12.43;9.53;;;;;;;15.16;73.05;96528.44;5075169;28;20177;-63
2022/05/03 06:00:01;;;;;;;11.60;10.60;;;;;;;14.62;75.66;96530.66;5094893;28;20309;-63
2022/05/03 06:02:27;;;;;;;11.37;10.17;;;;;;;14.66;77.10;96542.28;5079325;28;20315;-63
2022/05/03 06:04:53;;;;;;;13.07;9.77;;;;;;;15.14;75.27;96535.84;5075566;28;20671;-63
2022/05/03 06:07:19;;;;;;;11.63;9.63;;;;;;;15.08;74.13;96534.22;5083305;28;20227;-62
2022/05/03 06:09:44;;;;;;;15.27;9.70;;;;;;;15.79;71.69;96537.75;5089620;28;20172;-62
2022/05/03 06:12:10;;;;;;;12.57;9.97;;;;;;;15.87;71.69;96539.06;5077965;28;20233;-62
2022/05/03 06:14:36;;;;;;;10.47;9.43;;;;;;;15.65;72.00;96536.72;5087938;28;20209;-62
2022/05/03 06:17:02;;;;;;;10.77;9.67;;;;;;;15.47;72.20;96532.72;5059373;28;20216;-62
2022/05/03 06:19:28;;;;;;;13.53;10.50;;;;;;;16.05;70.42;96533.25;5079041;28;20251;-62
2022/05/03 06:21:54;;;;;;;12.37;9.80;;;;;;;15.61;70.92;96533.78;5093175;28;20569;-62
2022/05/03 06:24:19;;;;;;;12.63;10.30;;;;;;;15.63;71.70;96536.97;5094037;28;20615;-61
2022/05/03 06:26:45;;;;;;;11.93;10.30;;;;;;;15.43;72.02;96544.88;5080775;28;20256;-63
2022/05/03 06:29:10;;;;;;;11.70;10.07;;;;;;;16.19;70.18;96537.72;5087674;28;20177;-61
2022/05/03 06:31:42;;;;;;;12.93;10.90;;;;;;;16.61;68.68;96544.47;5092516;28;20565;-64
2022/05/03 06:34:08;;;;;;;11.70;10.50;;;;;;;16.80;67.10;96537.53;5089966;28;20188;-61
2022/05/03 06:36:35;;;;;;;11.73;10.10;;;;;;;16.83;66.94;96544.16;5071712;28;20204;-61
2022/05/03 06:39:01;;;;;;;11.00;9.60;;;;;;;16.92;66.69;96542.50;5074131;28;20177;-64
2022/05/03 06:41:27;;;;;;;12.43;9.73;;;;;;;16.80;66.46;96537.53;5090722;28;20180;-61
2022/05/03 06:43:52;;;;;;;14.00;10.10;;;;;;;17.05;66.07;96542.69;5065737;28;20174;-60
2022/05/03 06:46:20;;;;;;;9.23;7.90;;;;;;;16.80;64.63;96539.38;5072332;28;20827;-64
2022/05/03 06:48:45;;;;;;;10.07;8.50;;;;;;;16.77;65.83;96540.72;5072912;28;20650;-63
2022/05/03 06:51:11;;;;;;;8.50;7.70;;;;;;;16.97;66.05;96543.28;5069068;28;20351;-65
2022/05/03 06:53:36;;;;;;;9.57;8.63;;;;;;;16.73;66.60;96552.91;5085720;28;20183;-61
2022/05/03 06:56:03;;;;;;;9.68;7.93;;;;;;;16.68;66.69;96546.84;5084182;28;20216;-63
2022/05/03 06:58:28;;;;;;;10.33;9.17;;;;;;;16.46;67.32;96540.00;5077921;28;20170;-65
2022/05/03 07:00:54;;;;;;;9.43;7.97;;;;;;;16.20;69.04;96549.88;5077180;28;20542;-64
2022/05/03 07:03:19;;;;;;;10.90;8.73;;;;;;;16.28;69.23;96553.00;5093338;28;20636;-63
2022/05/03 07:05:45;;;;;;;9.57;8.57;;;;;;;16.55;68.16;96548.19;5092921;28;20196;-66
2022/05/03 07:08:11;;;;;;;11.00;9.00;;;;;;;16.58;67.50;96545.78;5080353;28;20185;-62
2022/05/03 07:10:38;;;;;;;10.33;8.60;;;;;;;16.74;66.53;96551.84;5079159;28;20180;-64
2022/05/03 07:13:04;;;;;;;10.10;9.10;;;;;;;16.32;68.07;96551.44;5075594;28;20181;-64
2022/05/03 07:15:30;;;;;;;12.93;9.57;;;;;;;16.11;69.25;96554.09;5064143;28;20230;-64
2022/05/03 07:23:26;;;;;;;9.30;8.40;;;;;;;16.87;66.57;96553.91;5052791;28;20197;-66
2022/05/03 07:25:53;;;;;;;11.50;9.00;;;;;;;16.47;66.52;96565.41;5053578;28;20194;-64
2022/05/03 07:28:19;;;;;;;8.67;7.73;;;;;;;16.28;65.42;96568.88;5051792;28;20704;-63
2022/05/03 07:30:50;;;;;;;10.37;8.93;;;;;;;16.86;66.75;96567.41;5053056;28;20163;-64
2022/05/03 07:33:17;;;;;;;4.77;4.10;;;;;;;17.35;84.87;96573.50;5053209;28;20544;-66
2022/05/03 07:35:42;;;;;;;9.33;8.43;;;;;;;17.74;64.64;96570.09;5052458;28;20771;-63
2022/05/03 07:38:08;;;;;;;9.27;7.90;;;;;;;18.49;60.64;96576.59;5052256;28;20192;-63
2022/05/03 07:40:35;;;;;;;10.77;8.43;;;;;;;18.24;58.97;96574.16;5052278;28;20193;-62
2022/05/03 07:43:03;;;;;;;8.73;7.43;;;;;;;18.41;58.19;96581.69;5052746;28;20175;-62
2022/05/03 07:45:29;;;;;;;10.90;7.53;;;;;;;18.78;57.35;96581.84;5034851;28;20194;-62
2022/05/03 07:47:55;;;;;;;10.55;6.85;;;;;;;18.80;55.71;96584.22;5051938;28;20239;-65
2022/05/03 07:50:20;;;;;;;7.47;6.78;;;;;;;18.71;55.35;96583.28;5051745;28;20192;-62
2022/05/03 07:52:46;;;;;;;9.38;7.45;;;;;;;17.54;59.18;96581.63;5052440;28;20170;-62
2022/05/03 07:55:11;;;;;;;8.15;7.30;;;;;;;17.17;60.72;96584.72;5052264;28;20202;-64
2022/05/03 07:57:37;;;;;;;7.60;6.80;;;;;;;17.74;58.42;96584.16;5051907;28;20265;-63
2022/05/03 08:00:04;;;;;;;8.93;7.40;;;;;;;17.92;58.65;96582.69;5052408;28;20662;-63
2022/05/03 08:02:30;;;;;;;8.52;7.25;;;;;;;17.30;60.34;96586.78;5052446;28;20182;-63
2022/05/03 08:04:56;;;;;;;8.27;7.57;;;;;;;17.94;58.75;96580.56;5051988;28;20185;-63
2022/05/03 08:07:22;;;;;;;7.18;6.47;;;;;;;18.16;57.25;96586.19;5043057;28;20201;-64
2022/05/03 08:09:53;;;;;;;7.32;6.63;;;;;;;18.22;56.49;96590.34;5052041;28;20553;-63
2022/05/03 08:12:19;;;;;;;8.40;6.60;;;;;;;18.14;57.21;96584.88;5052005;28;20731;-62
2022/05/03 08:14:46;;;;;;;6.63;5.88;;;;;;;18.36;55.79;96597.69;5045632;28;20197;-63
2022/05/03 08:17:12;;;;;;;9.82;7.03;;;;;;;17.98;57.91;96594.03;5012333;28;20215;-62
2022/05/03 08:19:38;;;;;;;10.02;7.50;;;;;;;17.77;59.06;96588.91;5012757;28;20182;-62
2022/05/03 08:22:04;;;;;;;8.40;7.60;;;;;;;18.21;58.85;96594.09;5012252;28;20186;-62
2022/05/03 08:24:30;;;;;;;7.95;7.00;;;;;;;18.16;58.16;96593.38;5012261;28;20171;-62
2022/05/03 08:26:55;;;;;;;8.13;7.22;;;;;;;18.14;58.65;96593.63;5012411;28;20202;-62
2022/05/03 08:29:21;;;;;;;8.63;7.80;;;;;;;17.96;59.16;96589.00;5012034;28;20171;-62
2022/05/03 08:31:47;;;;;;;8.27;7.47;;;;;;;17.99;59.40;96592.97;5012195;28;20174;-62
2022/05/03 08:34:13;;;;;;;8.15;7.30;;;;;;;17.93;59.38;96597.53;5010535;28;20607;-62
2022/05/03 08:36:39;;;;;;;8.68;7.00;;;;;;;17.73;59.55;96601.13;5011755;28;20265;-61
2022/05/03 08:42:02;;;;;;;9.75;7.60;;;;;;;17.56;60.07;96597.22;5011722;28;20206;-62
2022/05/03 08:44:31;;;;;;;7.60;6.73;;;;;;;17.68;60.00;96601.16;5012440;28;20207;-63
2022/05/03 08:46:58;;;;;;;6.95;6.25;;;;;;;18.13;58.56;96602.66;5012306;28;20210;-62
2022/05/03 08:49:27;;;;;;;6.73;6.13;;;;;;;17.91;58.12;96599.66;5012214;28;20171;-64
2022/05/03 08:51:53;;;;;;;6.65;6.05;;;;;;;18.24;57.08;96601.50;5012002;28;20640;-62
2022/05/03 08:54:20;;;;;;;6.18;5.53;;;;;;;17.91;56.93;96601.50;5011072;28;20187;-61
2022/05/03 08:56:47;;;;;;;5.75;5.10;;;;;;;18.44;56.69;96602.38;5012338;28;20203;-61
2022/05/03 08:59:13;;;;;;;4.88;4.47;;;;;;;18.47;54.99;96605.25;5012480;28;20544;-64
2022/05/03 09:01:40;;;;;;;4.88;4.50;;;;;;;18.12;55.10;96600.28;5012001;28;20634;-64
2022/05/03 09:04:10;;;;;;;5.25;4.75;;;;;;;18.58;54.73;96601.47;5016259;28;20175;-65
2022/05/03 09:06:46;;;;;;;4.10;3.80;;;;;;;18.36;53.27;96609.09;5015942;28;20298;-61
2022/05/03 09:09:14;;;;;;;5.28;4.30;;;;;;;18.27;54.40;96608.13;5015896;28;20187;-62
2022/05/03 09:11:47;;;;;;;4.90;4.47;;;;;;;18.78;53.89;96613.72;5014802;28;20644;-64
2022/05/03 09:16:53;;;;;;;5.03;4.43;;;;;;;18.27;53.92;96605.47;5033308;28;20263;-62
2022/05/03 09:19:24;;;;;;;5.22;4.65;;;;;;;19.09;52.37;96604.31;5035298;28;20609;-62
2022/05/03 09:25:04;;;;;;;6.00;4.45;;;;;;;19.13;51.98;96601.09;5029385;28;20221;-62
2022/05/03 09:27:31;;;;;;;4.78;4.38;;;;;;;18.77;53.25;96601.53;5019232;28;20198;-64
2022/05/03 09:30:06;;;;;;;5.20;4.32;;;;;;;18.72;53.16;96598.13;5028663;28;20240;-62
2022/05/03 09:32:38;;;;;;;5.47;4.30;;;;;;;19.07;52.67;96595.03;5035123;28;20276;-64
2022/05/03 09:35:05;;;;;;;5.20;4.25;;;;;;;19.70;50.38;96592.88;5034837;28;20194;-63
2022/05/03 09:37:43;;;;;;;4.95;4.55;;;;;;;19.92;49.83;96593.06;5035174;28;20212;-63
2022/05/03 09:40:12;;;;;;;4.05;3.63;;;;;;;19.46;50.28;96590.31;5035433;28;20170;-64
2022/05/03 09:42:38;;;;;;;4.20;3.80;;;;;;;19.30;50.36;96591.56;5035430;28;20515;-64
2022/05/03 09:45:08;;;;;;;3.70;3.40;;;;;;;19.11;49.43;96594.19;5035272;28;20547;-63
2022/05/03 09:47:56;;;;;;;3.58;3.15;;;;;;;19.89;48.38;96587.56;5031604;28;20179;-64
2022/05/03 09:50:39;;;;;;;3.85;3.55;;;;;;;20.13;47.53;96579.41;5034774;28;20185;-64
2022/05/03 09:53:16;;;;;;;4.95;3.80;;;;;;;19.33;49.43;96585.69;5034960;28;20257;-64
2022/05/03 09:55:42;;;;;;;4.20;3.85;;;;;;;18.99;50.49;96588.53;5033955;28;20205;-64
2022/05/03 09:58:12;;;;;;;5.57;4.03;;;;;;;19.36;50.08;96585.09;5034434;28;20175;-64
2022/05/03 10:00:43;;;;;;;4.97;4.43;;;;;;;20.22;49.31;96570.50;5034688;28;20198;-63
2022/05/03 10:03:10;;;;;;;4.72;3.70;;;;;;;20.23;49.58;96581.91;5034589;28;20321;-64
2022/05/03 10:05:38;;;;;;;4.03;3.72;;;;;;;20.06;48.75;96574.47;5034012;28;20198;-63
2022/05/03 10:08:05;;;;;;;5.82;4.90;;;;;;;19.31;50.57;96571.88;5034579;28;20235;-62
2022/05/03 10:10:31;;;;;;;5.60;5.00;;;;;;;19.44;50.09;96573.03;5034348;28;20197;-64
2022/05/03 10:12:58;;;;;;;5.80;3.97;;;;;;;19.12;50.84;96571.06;5032913;28;20313;-63
2022/05/03 10:21:10;;;;;;;3.80;3.50;;;;;;;18.75;51.76;96563.03;5041297;28;20208;-64
2022/05/03 10:23:36;;;;;;;4.28;3.88;;;;;;;18.86;51.87;96564.50;5055493;28;20178;-63
2022/05/03 10:26:06;;;;;;;4.38;4.00;;;;;;;18.97;51.84;96556.13;5048274;28;20285;-63
2022/05/03 10:29:09;;;;;;;4.70;4.20;;;;;;;18.46;52.27;96553.25;5053138;28;20273;-63
2022/05/03 10:32:14;;;;;;;4.13;3.72;;;;;;;18.64;52.27;96554.41;5054021;28;20970;-63
2022/05/03 10:34:40;;;;;;;5.80;4.10;;;;;;;18.58;52.78;96548.38;5070056;28;20177;-63
2022/05/03 10:37:16;;;;;;;5.00;3.80;;;;;;;18.84;52.15;96545.41;5054159;28;20205;-63
2022/05/03 10:39:54;;;;;;;4.35;3.95;;;;;;;18.62;52.35;96540.63;5066934;28;20169;-64
2022/05/03 10:42:29;;;;;;;3.97;3.67;;;;;;;18.62;52.33;96537.97;5072503;28;20712;-64
2022/05/03 10:44:58;;;;;;;3.80;3.50;;;;;;;18.81;52.33;96538.81;5059452;28;20553;-63
2022/05/03 10:47:49;;;;;;;5.32;3.67;;;;;;;18.67;52.10;96544.00;5072773;28;20347;-65
2022/05/03 10:50:17;;;;;;;4.32;3.78;;;;;;;18.48;52.68;96537.03;5056926;28;20170;-64
2022/05/03 10:52:56;;;;;;;4.45;4.05;;;;;;;18.80;51.80;96544.38;5041951;28;20177;-62
2022/05/03 10:55:22;;;;;;;4.20;3.80;;;;;;;18.78;52.14;96542.00;5064511;28;20198;-63
2022/05/03 10:58:25;;;;;;;5.07;4.50;;;;;;;18.60;51.67;96542.78;5053531;28;20178;-63
2022/05/03 11:01:18;;;;;;;4.25;3.90;;;;;;;18.73;51.15;96533.31;5070471;28;20297;-62
2022/05/03 11:03:47;;;;;;;4.22;3.88;;;;;;;18.84;51.32;96534.78;5026967;28;20178;-63
2022/05/03 11:06:18;;;;;;;4.70;4.25;;;;;;;18.91;50.21;96528.03;5063231;28;20207;-63
2022/05/03 11:09:02;;;;;;;6.97;5.15;;;;;;;18.80;50.86;96523.16;5069485;28;20182;-63
2022/05/03 11:11:39;;;;;;;5.35;4.82;;;;;;;19.11;50.20;96524.34;5066159;28;20176;-63
2022/05/03 11:14:05;;;;;;;4.90;4.47;;;;;;;19.06;50.73;96519.06;5072975;28;20227;-63
2022/05/03 11:16:34;;;;;;;6.72;4.32;;;;;;;19.42;50.19;96512.19;5088185;28;20236;-63
2022/05/03 11:19:10;;;;;;;5.45;4.93;;;;;;;19.64;48.63;96514.25;5102417;28;20254;-63
2022/05/03 11:21:36;;;;;;;5.13;4.13;;;;;;;19.45;49.16;96503.66;5104027;28;20217;-62
2022/05/03 11:24:01;;;;;;;4.90;4.45;;;;;;;19.54;48.24;96503.00;5104942;28;20648;-62
2022/05/03 11:26:27;;;;;;;4.93;4.47;;;;;;;19.27;48.74;96507.09;5104069;28;20202;-63
2022/05/03 11:28:56;;;;;;;4.80;4.32;;;;;;;19.54;49.14;96506.44;5095982;28;20255;-62
2022/05/03 11:31:23;;;;;;;4.60;4.10;;;;;;;19.57;48.42;96500.53;5092970;28;20275;-63
2022/05/03 11:33:49;;;;;;;4.45;4.05;;;;;;;19.77;47.82;96499.44;5107873;28;20172;-63
2022/05/03 11:36:15;;;;;;;5.43;3.65;;;;;;;19.73;47.68;96495.75;5096284;28;20625;-63
2022/05/03 11:38:40;;;;;;;4.28;3.88;;;;;;;19.79;46.10;96489.28;5091662;28;20276;-63
2022/05/03 11:41:07;;;;;;;4.25;3.90;;;;;;;20.04;46.73;96485.38;5093215;28;20200;-64
2022/05/03 11:43:33;;;;;;;4.20;3.80;;;;;;;20.55;45.61;96479.91;5092976;28;20201;-65
2022/05/03 11:45:59;;;;;;;4.00;3.63;;;;;;;20.84;44.22;96480.38;5093112;28;20278;-65
2022/05/03 11:48:25;;;;;;;3.85;3.55;;;;;;;20.54;44.85;96475.66;5113017;28;20608;-64
2022/05/03 11:56:26;;;;;;;4.72;4.10;;;;;;;20.62;45.00;96477.63;5099831;28;20286;-65
2022/05/03 11:58:52;;;;;;;5.00;4.47;;;;;;;20.67;45.50;96478.31;5093050;28;20226;-65
2022/05/03 12:01:18;;;;;;;4.68;4.18;;;;;;;20.48;45.85;96474.97;5110471;28;20168;-65
2022/05/03 12:03:45;;;;;;;5.70;4.95;;;;;;;20.34;45.72;96477.63;5090435;28;20245;-65
2022/05/03 12:06:11;;;;;;;5.38;4.85;;;;;;;20.64;45.37;96480.78;5092470;28;20247;-65
2022/05/03 12:08:37;;;;;;;6.15;4.28;;;;;;;20.43;46.11;96474.28;5091067;28;20176;-65
2022/05/03 12:11:03;;;;;;;4.18;3.80;;;;;;;20.45;46.49;96478.22;5108484;28;20215;-65
2022/05/03 12:13:31;;;;;;;7.40;5.03;;;;;;;20.21;46.05;96474.97;5092642;28;20204;-65